»·PEaware :: N360BG KYKM-KGEG

N360BG :: KYKM-KGEG

FLIGHT INFORMATION

Flight Status: Arrived
Operator: Privately registered:
United States
More flights under this callsign
Pilot: Brandon G. (13)
Aircraft: Unknown
(EPIC)
More flights by this aircraft type
Origin: KYKM Yakima Air Term/Mcallister
United States
Destination: KGEG Spokane Intl
United States
More flights between these airports :: More routes between these airports
Route: MWH ZOOMR1
File this flight plan on PilotEdge
Remarks:
Altitude:
(Current/Filed)
19,000ft
Speed:
(Current/Filed)
325kts
Departed: 11-Jan-18 05:57 PM
Arrived: 11-Jan-18 06:31 PM
Distance/Time
Traveled:
138nm/0:34
Distance/Time
To Go:
Arrived

Flight Plot

Page will automatically refresh every two minutes.

Flight plan parsing failed; only flown route is shown


Map Options




Map Legend


Flown Route
Filed Route
Departure Airport
Arrival Airport
Navaid (VOR, NDB)
Fix

Horizontal Profiles

Position Reports

Time Latitude Longitude Heading Altitude Ground
Speed
11-Jan-18 17:11 46.570403 -120.542545 88 1068ft 0kts
11-Jan-18 17:12 46.570403 -120.542545 88 1068ft 0kts
11-Jan-18 17:13 46.570403 -120.542545 88 1068ft 0kts
11-Jan-18 17:14 46.570403 -120.542545 88 1068ft 0kts
11-Jan-18 17:15 46.570403 -120.542545 88 1068ft 0kts
11-Jan-18 17:16 46.570403 -120.542545 88 1068ft 0kts
11-Jan-18 17:17 46.570403 -120.542545 88 1068ft 0kts
11-Jan-18 17:18 46.570403 -120.542545 88 1068ft 0kts
11-Jan-18 17:19 46.570403 -120.542545 88 1068ft 0kts
11-Jan-18 17:20 46.570401 -120.542533 82 1068ft 0kts
11-Jan-18 17:21 46.570401 -120.542533 82 1068ft 0kts
11-Jan-18 17:22 46.570401 -120.542533 82 1068ft 0kts
11-Jan-18 17:23 46.570401 -120.542533 82 1068ft 0kts
11-Jan-18 17:24 46.570401 -120.542533 82 1068ft 0kts
11-Jan-18 17:25 46.570401 -120.542533 82 1068ft 0kts
11-Jan-18 17:26 46.570401 -120.542532 82 1068ft 0kts
11-Jan-18 17:35 46.570401 -120.542532 81 1068ft 0kts
11-Jan-18 17:36 46.570401 -120.542532 81 1068ft 0kts
11-Jan-18 17:37 46.570401 -120.542532 81 1068ft 0kts
11-Jan-18 17:38 46.570401 -120.542532 81 1068ft 0kts
11-Jan-18 17:39 46.570401 -120.542532 81 1068ft 0kts
11-Jan-18 17:40 46.570401 -120.542532 81 1068ft 0kts
11-Jan-18 17:41 46.570401 -120.542532 81 1068ft 0kts
11-Jan-18 17:42 46.570401 -120.542532 81 1068ft 0kts
11-Jan-18 17:43 46.570401 -120.542532 81 1068ft 0kts
11-Jan-18 17:44 46.570401 -120.542532 81 1068ft 0kts
11-Jan-18 17:45 46.570401 -120.542532 81 1068ft 0kts
11-Jan-18 17:46 46.570401 -120.542532 81 1068ft 0kts
11-Jan-18 17:47 46.570401 -120.542532 81 1068ft 0kts
11-Jan-18 17:48 46.570401 -120.542532 81 1068ft 0kts
11-Jan-18 17:49 46.570401 -120.542532 81 1068ft 0kts
11-Jan-18 17:50 46.570401 -120.542532 81 1068ft 0kts
11-Jan-18 17:51 46.570401 -120.542532 81 1068ft 0kts
11-Jan-18 17:52 46.570401 -120.542532 81 1068ft 0kts
11-Jan-18 17:53 46.570401 -120.542532 81 1068ft 0kts
11-Jan-18 17:54 46.570401 -120.542532 81 1068ft 0kts
11-Jan-18 17:55 46.570401 -120.542532 81 1068ft 0kts
11-Jan-18 17:56 46.570401 -120.542532 81 1068ft 0kts
11-Jan-18 17:57 46.570401 -120.542532 81 1068ft 0kts
11-Jan-18 17:58 46.570401 -120.542532 81 1068ft 0kts
11-Jan-18 17:59 46.570395 -120.542489 109 1068ft 3kts
11-Jan-18 18:00 46.569521 -120.542451 151 1067ft 15kts
11-Jan-18 18:01 46.567508 -120.534807 112 1053ft 23kts
11-Jan-18 18:02 46.566492 -120.531476 177 1047ft 0kts
11-Jan-18 18:03 46.569873 -120.546941 301 1517ft 123kts
11-Jan-18 18:04 46.606870 -120.571906 334 4211ft 183kts
11-Jan-18 18:05 46.658586 -120.597267 335 7160ft 210kts
11-Jan-18 18:06 46.697729 -120.553872 81 9749ft 242kts
11-Jan-18 18:07 46.721599 -120.463997 57 11866ft 252kts
11-Jan-18 18:08 46.756199 -120.378488 52 13873ft 255kts
11-Jan-18 18:09 46.792519 -120.294183 51 15885ft 251kts
11-Jan-18 18:10 46.828346 -120.211669 50 17911ft 242kts
11-Jan-18 18:11 46.865446 -120.126334 51 18877ft 277kts
11-Jan-18 18:12 46.908666 -120.026367 52 18891ft 324kts
11-Jan-18 18:13 46.957057 -119.913969 53 18898ft 354kts
11-Jan-18 18:14 47.008187 -119.794713 53 18896ft 361kts
11-Jan-18 18:15 47.056776 -119.680924 53 18888ft 360kts
11-Jan-18 18:16 47.104064 -119.569761 53 18902ft 359kts
11-Jan-18 18:17 47.155283 -119.448855 53 18902ft 359kts
11-Jan-18 18:18 47.203054 -119.335470 56 18891ft 360kts
11-Jan-18 18:19 47.235092 -119.204930 70 18887ft 362kts
11-Jan-18 18:20 47.264746 -119.068841 70 18888ft 362kts
11-Jan-18 18:21 47.294030 -118.932863 71 18889ft 361kts
11-Jan-18 18:22 47.322342 -118.800326 71 18890ft 358kts
11-Jan-18 18:26 47.435548 -118.261234 73 13377ft 352kts
11-Jan-18 18:27 47.462204 -118.132248 73 12488ft 324kts
11-Jan-18 18:28 47.482863 -118.009518 100 11126ft 309kts
11-Jan-18 18:29 47.464322 -117.897172 104 8978ft 277kts
11-Jan-18 18:30 47.458447 -117.795400 64 6512ft 243kts
11-Jan-18 18:31 47.490000 -117.730154 42 5127ft 175kts
11-Jan-18 18:32 47.518958 -117.686939 41 4888ft 137kts
11-Jan-18 18:33 47.542634 -117.651579 41 4288ft 109kts
11-Jan-18 18:34 47.562977 -117.621088 42 3731ft 105kts
11-Jan-18 18:35 47.583804 -117.589731 43 3153ft 108kts
11-Jan-18 18:36 47.604925 -117.557581 41 2608ft 112kts
11-Jan-18 18:37 47.619750 -117.535593 44 2362ft 36kts
11-Jan-18 18:38 47.621039 -117.527797 102 2357ft 15kts
11-Jan-18 18:39 47.620667 -117.527842 345 2358ft 0kts
11-Jan-18 18:40 47.620667 -117.527842 345 2358ft 0kts
11-Jan-18 18:41 47.620667 -117.527842 345 2358ft 0kts
11-Jan-18 18:42 47.620667 -117.527842 345 2358ft 0kts
11-Jan-18 18:43 47.620667 -117.527842 345 2358ft 0kts
11-Jan-18 18:44 47.620667 -117.527842 345 2358ft 0kts
11-Jan-18 18:45 47.620667 -117.527842 345 2358ft 0kts
11-Jan-18 18:46 47.620667 -117.527842 345 2358ft 0kts
11-Jan-18 18:47 47.620667 -117.527842 345 2358ft 0kts
11-Jan-18 18:48 47.620667 -117.527842 345 2358ft 0kts
11-Jan-18 18:49 47.620667 -117.527842 345 2358ft 0kts
11-Jan-18 18:50 47.620667 -117.527842 345 2358ft 0kts
11-Jan-18 18:51 47.620667 -117.527842 345 2358ft 0kts
11-Jan-18 18:52 47.620667 -117.527842 345 2358ft 0kts

Navigation Log

Ident Type
Flight plan parsing failed, navigation log unavailable